East Blue Hill, ME (04629)

11:54 PM EST on January 18, 2017 (GMT -0500)
ME3414 | | Change Station

Elev 59 ft 44.41 °N, 68.57 °W | Updated 7 minutes ago

Overcast
Overcast
27.0 °F
Feels Like 27 °F
N
2.0
Wind Variable Wind from NNE
Gusts 6.0 mph

Today
High -- | Low -- °F
--% Chance of Precip.
Yesterday
High -- | Low -- °F
Precip. -- in
Pressure 30.08 in
Visibility 10.0 miles
Clouds Overcast 7000 ft
Windchill 27 °F
Dew Point 21 °F
Humidity 78%
Rainfall 0.05 in
Snow Depth Not available.
7:04 AM 4:24 PM
Waning Gibbous, 57% visible
METAR KBHB 190356Z AUTO 36004KT 10SM OVC070 M03/M07 A3006 RMK AO2 SLP184 T10331067 410221061 FZRANO
Pressure 30.08 in
Visibility 10.0 miles
Clouds Overcast 7000 ft
Windchill 27 °F
Dew Point 21 °F
Humidity 78%
Rainfall 0.05 in
Snow Depth Not available.
7:04 AM 4:24 PM
Waning Gibbous, 57% visible
METAR KBHB 190356Z AUTO 36004KT 10SM OVC070 M03/M07 A3006 RMK AO2 SLP184 T10331067 410221061 FZRANO

Get Your Daily Forecast Email!

Thanks for signing up!

Be on the lookout for a verification email in your inbox.

You'll start receiving the daily forecast at 8 AM.

×

10-Day Weather Forecast

Almanac

Astronomy

Jan. 18, 2017 Rise Set
Actual Time
Civil Twilight
Nautical Twilight
Astronomical Twilight
Moon
Length of Visible Light
Length of Day
Tomorrow will be .
, % of the Moon is Illuminated

Today's Extremes

State Highs State Lows

Community

WunderPhotos

Upload Photos

1,962,540 photos uploaded!

WunderBlog® & News

Nearby

Air Quality

  Air Quality AQ Index Pollutant
Not available.

Snow Depth

Station Depth Elevation

Earthquake Activity

City Distance Mag. Time & Date
Minimum magnitude displayed is 2.5.

Coastal Water Temperatures

Place Temperature

Stations

Nearby Weather Stations

Station Location Temp. Windchill Dew Point Humidity Wind Precip. Elev Updated Type
                   

Watches & Warnings

There are currently no watches in effect.